createdAt,value
2023-02-02T00:13:05.023Z,1016.2
2023-02-02T00:43:05.028Z,1016.28
2023-02-02T01:13:05.030Z,1016.65
2023-02-02T01:43:05.050Z,1016.97
2023-02-02T02:13:05.025Z,1017.11
2023-02-02T02:43:05.038Z,1017.21
2023-02-02T03:13:05.042Z,1017.31
2023-02-02T03:43:05.065Z,1017.31
2023-02-02T04:13:05.069Z,1017.19
2023-02-02T04:43:05.066Z,1017.74
2023-02-02T05:13:05.065Z,1017.79
2023-02-02T05:43:05.077Z,1018.14
2023-02-02T06:13:05.067Z,1018.07
2023-02-02T06:43:05.064Z,1018.18
2023-02-02T07:13:05.073Z,1018.3
2023-02-02T07:43:05.074Z,1018.57
2023-02-02T08:13:05.082Z,1018.68
2023-02-02T08:43:05.105Z,1018.69
2023-02-02T09:13:05.103Z,1018.81
2023-02-02T09:43:05.113Z,1018.8
2023-02-02T10:13:05.114Z,1018.99
2023-02-02T10:43:05.123Z,1018.88
2023-02-02T11:13:05.120Z,1018.76
2023-02-02T11:43:05.120Z,1018.79
2023-02-02T12:13:05.135Z,1018.64
2023-02-02T12:43:05.159Z,1018.87
2023-02-02T13:13:05.151Z,1018.99
2023-02-02T13:43:05.154Z,1019.45
2023-02-02T14:13:05.180Z,1019.96
2023-02-02T14:43:05.154Z,1020.35
2023-02-02T15:13:05.148Z,1020.77
2023-02-02T15:43:05.154Z,1021.25
2023-02-02T16:13:05.182Z,1021.72
2023-02-02T16:43:05.185Z,1022.33
2023-02-02T17:13:05.172Z,1022.64
2023-02-02T17:43:05.180Z,1023.2
2023-02-02T18:13:05.209Z,1023.55
2023-02-02T18:43:05.194Z,1023.58
2023-02-02T19:13:05.208Z,1023.79
2023-02-02T19:43:05.200Z,1023.87
2023-02-02T20:13:05.203Z,1023.78
2023-02-02T20:43:05.195Z,1023.87
2023-02-02T21:13:05.210Z,1024
2023-02-02T21:43:05.209Z,1023.89
2023-02-02T22:13:05.223Z,1023.86
2023-02-02T22:43:05.211Z,1023.74
2023-02-02T23:13:05.222Z,1023.78
2023-02-02T23:43:05.222Z,1023.94
